Time;durP1;ratioP1;P1;durP2;ratioP2;P2;SDS_P1;SDS_P2;PMS_P1;PMS_P2;Temp;Humidity;BMP_temperature;BMP_pressure;BME280_temperature;BME280_humidity;BME280_pressure;Samples;Min_cycle;Max_cycle;Signal;HPM_P1;HPM_P2
2021/12/03 00:02:03;;;;;;;8.70;4.33;;;;;;;4.57;88.17;97480.03;4902407;29;20635;-92
2021/12/03 00:04:32;;;;;;;5.10;3.73;;;;;;;4.52;88.37;97476.88;4893092;29;20645;-92
2021/12/03 00:07:01;;;;;;;6.73;4.37;;;;;;;4.51;87.80;97478.63;4885063;29;21280;-92
2021/12/03 00:09:34;;;;;;;5.30;4.10;;;;;;;4.50;88.26;97487.28;4889600;29;20669;-93
2021/12/03 00:12:03;;;;;;;6.17;4.40;;;;;;;4.48;88.44;97493.44;4896325;29;20906;-93
2021/12/03 00:14:33;;;;;;;5.40;3.77;;;;;;;4.48;88.10;97507.19;4913727;29;20726;-92
2021/12/03 00:17:03;;;;;;;7.30;4.27;;;;;;;4.47;88.07;97523.59;4885094;29;21301;-92
2021/12/03 00:19:32;;;;;;;5.50;4.03;;;;;;;4.45;88.80;97519.41;4904944;29;21077;-91
2021/12/03 00:22:00;;;;;;;5.53;4.03;;;;;;;4.46;88.05;97526.25;4904343;29;20634;-93
2021/12/03 00:24:28;;;;;;;7.57;4.30;;;;;;;4.47;88.62;97527.94;4908817;29;20706;-92
2021/12/03 00:26:56;;;;;;;6.13;3.80;;;;;;;4.43;88.17;97527.22;4893193;29;20670;-92
2021/12/03 00:29:25;;;;;;;6.37;4.20;;;;;;;4.45;88.84;97535.75;4899722;29;20710;-92
2021/12/03 00:31:53;;;;;;;5.83;4.00;;;;;;;4.43;88.60;97547.88;4886857;29;20642;-92
2021/12/03 00:34:23;;;;;;;6.03;4.03;;;;;;;4.46;88.16;97552.06;4892029;29;20645;-92
2021/12/03 00:36:51;;;;;;;5.93;4.33;;;;;;;4.46;88.15;97557.22;4904333;29;20638;-91
2021/12/03 00:39:20;;;;;;;6.80;4.07;;;;;;;4.48;88.74;97563.97;4914860;29;20855;-91
2021/12/03 00:41:53;;;;;;;6.10;4.53;;;;;;;4.47;87.82;97562.31;4891603;29;20733;-91
2021/12/03 00:44:24;;;;;;;7.90;3.87;;;;;;;4.48;88.71;97558.81;4910261;29;20630;-91
2021/12/03 00:46:52;;;;;;;5.80;4.00;;;;;;;4.46;88.28;97560.63;4894943;29;20651;-92
2021/12/03 00:49:20;;;;;;;5.83;3.80;;;;;;;4.45;88.32;97569.31;4907598;29;20713;-91
2021/12/03 00:51:50;;;;;;;6.70;4.53;;;;;;;4.46;87.69;97573.53;4909631;29;20652;-91
2021/12/03 00:54:18;;;;;;;6.00;4.53;;;;;;;4.45;87.80;97579.63;4895592;29;20682;-91
2021/12/03 00:56:47;;;;;;;6.20;4.20;;;;;;;4.45;87.80;97576.19;4904111;29;20711;-92
2021/12/03 00:59:15;;;;;;;5.60;3.87;;;;;;;4.44;88.01;97585.69;4930076;29;20639;-92
2021/12/03 01:01:43;;;;;;;6.87;4.23;;;;;;;4.45;87.87;97589.09;4909590;29;20631;-91
2021/12/03 01:04:12;;;;;;;4.60;3.63;;;;;;;4.47;87.85;97595.03;4909838;29;20637;-92
2021/12/03 01:06:40;;;;;;;7.60;4.00;;;;;;;4.44;87.85;97584.88;4891610;29;20710;-92
2021/12/03 01:09:10;;;;;;;7.33;4.30;;;;;;;4.47;88.06;97593.28;4890902;29;20669;-92
2021/12/03 01:11:38;;;;;;;6.10;4.43;;;;;;;4.48;87.84;97596.69;4902285;29;21438;-91
2021/12/03 01:14:07;;;;;;;7.80;4.97;;;;;;;4.49;88.17;97595.78;4890304;29;20994;-91
2021/12/03 01:16:36;;;;;;;5.57;4.40;;;;;;;4.50;88.48;97600.88;4905842;29;20633;-92
2021/12/03 01:19:04;;;;;;;9.20;4.10;;;;;;;4.52;88.71;97616.28;4910165;29;20659;-91
2021/12/03 01:21:33;;;;;;;9.10;4.30;;;;;;;4.51;88.83;97620.59;4892473;29;20674;-91
2021/12/03 01:24:01;;;;;;;9.67;4.60;;;;;;;4.52;88.48;97619.69;4889065;29;20659;-91
2021/12/03 01:26:32;;;;;;;8.30;4.33;;;;;;;4.52;89.00;97622.25;4889867;29;20630;-92
2021/12/03 01:29:01;;;;;;;7.03;4.37;;;;;;;4.51;88.89;97622.34;4893344;29;21117;-91
2021/12/03 01:31:29;;;;;;;7.03;4.40;;;;;;;4.52;88.07;97630.00;4896571;29;20626;-92
2021/12/03 01:33:57;;;;;;;5.10;4.07;;;;;;;4.52;87.94;97622.25;4902123;29;21855;-91
2021/12/03 01:36:25;;;;;;;7.10;4.40;;;;;;;4.52;88.05;97630.00;4879925;29;20637;-92
2021/12/03 01:38:54;;;;;;;6.90;5.10;;;;;;;4.55;88.54;97624.69;4901927;29;20738;-92
2021/12/03 01:41:22;;;;;;;6.60;4.53;;;;;;;4.57;88.53;97633.19;4892206;29;20653;-92
2021/12/03 01:43:52;;;;;;;5.23;4.07;;;;;;;4.56;87.98;97628.94;4906038;29;20745;-91
2021/12/03 01:46:21;;;;;;;7.47;4.60;;;;;;;4.58;88.32;97640.00;4905842;29;20726;-91
2021/12/03 01:48:49;;;;;;;6.00;4.47;;;;;;;4.55;87.45;97645.34;4891011;29;20729;-92
2021/12/03 01:51:19;;;;;;;5.83;4.37;;;;;;;4.56;88.07;97651.34;4893845;29;20631;-91
2021/12/03 01:53:47;;;;;;;6.97;4.87;;;;;;;4.57;88.08;97647.84;4905722;29;20627;-92
2021/12/03 01:56:16;;;;;;;5.23;4.40;;;;;;;4.55;87.12;97640.16;4884963;29;20670;-92
2021/12/03 01:58:47;;;;;;;8.00;4.63;;;;;;;4.57;87.24;97637.50;4895861;29;21117;-92
2021/12/03 02:01:19;;;;;;;5.73;4.30;;;;;;;4.58;87.86;97640.00;4909712;29;20643;-91
2021/12/03 02:03:52;;;;;;;6.77;4.83;;;;;;;4.57;87.83;97638.38;4899647;29;20683;-91
2021/12/03 02:06:21;;;;;;;5.53;4.50;;;;;;;4.56;87.86;97641.84;4909800;29;20697;-92
2021/12/03 02:08:49;;;;;;;8.00;4.80;;;;;;;4.53;87.59;97647.16;4907541;29;20647;-91
2021/12/03 02:11:18;;;;;;;7.20;4.73;;;;;;;4.52;86.82;97640.31;4893662;29;20670;-90
2021/12/03 02:13:46;;;;;;;7.73;4.97;;;;;;;4.50;87.25;97642.16;4893571;29;21088;-91
2021/12/03 02:16:17;;;;;;;8.57;5.27;;;;;;;4.52;87.66;97653.22;4908616;29;20647;-91
2021/12/03 02:18:46;;;;;;;7.63;4.83;;;;;;;4.47;87.11;97641.50;4893787;29;20647;-91
2021/12/03 02:21:17;;;;;;;7.30;5.23;;;;;;;4.45;87.65;97641.56;4899493;29;20722;-91
2021/12/03 02:23:47;;;;;;;11.80;5.50;;;;;;;4.41;87.29;97650.38;4915457;29;20635;-91
2021/12/03 02:26:15;;;;;;;6.83;5.30;;;;;;;4.41;87.11;97652.97;4897233;29;20672;-92
2021/12/03 02:28:46;;;;;;;8.50;4.73;;;;;;;4.40;87.61;97656.44;4905942;29;20710;-92
2021/12/03 02:31:16;;;;;;;8.23;5.20;;;;;;;4.33;87.25;97652.53;4895243;29;20728;-91
2021/12/03 02:33:45;;;;;;;9.87;5.47;;;;;;;4.32;88.12;97648.25;4896130;29;20635;-92
2021/12/03 02:36:13;;;;;;;7.73;5.10;;;;;;;4.33;88.21;97656.84;4892181;29;20741;-91
2021/12/03 02:38:43;;;;;;;8.77;5.63;;;;;;;4.28;87.60;97657.09;4902418;29;20641;-91
2021/12/03 02:41:12;;;;;;;7.67;5.33;;;;;;;4.27;87.18;97664.91;4911383;29;20642;-92
2021/12/03 02:43:40;;;;;;;7.63;5.33;;;;;;;4.25;88.00;97664.13;4893692;29;20673;-92
2021/12/03 02:46:09;;;;;;;10.00;5.90;;;;;;;4.25;87.88;97667.56;4895147;29;20653;-92
2021/12/03 02:48:37;;;;;;;8.33;6.30;;;;;;;4.25;87.23;97669.28;4909632;29;20645;-91
2021/12/03 02:51:06;;;;;;;7.40;4.93;;;;;;;4.27;88.53;97675.22;4918993;29;20662;-91
2021/12/03 02:53:35;;;;;;;7.50;5.77;;;;;;;4.26;87.77;97671.81;4895503;29;20733;-92
2021/12/03 02:56:07;;;;;;;9.30;5.90;;;;;;;4.25;87.78;97672.72;4887051;29;20641;-92
2021/12/03 02:58:35;;;;;;;10.03;5.83;;;;;;;4.23;88.28;97678.88;4911108;29;20649;-91
2021/12/03 03:01:06;;;;;;;8.60;5.93;;;;;;;4.20;87.21;97680.78;4900396;29;20658;-92
2021/12/03 03:03:34;;;;;;;8.97;6.00;;;;;;;4.22;87.87;97677.19;4900360;29;20709;-91
2021/12/03 03:06:05;;;;;;;7.47;5.77;;;;;;;4.20;88.67;97685.00;4894600;29;20787;-92
2021/12/03 03:08:34;;;;;;;10.23;5.90;;;;;;;4.20;87.61;97683.34;4891414;29;20648;-92
2021/12/03 03:11:05;;;;;;;11.50;6.40;;;;;;;4.16;87.74;97681.84;4895240;29;21223;-90
2021/12/03 03:13:35;;;;;;;11.73;6.10;;;;;;;4.14;87.61;97686.25;4893168;29;20690;-91
2021/12/03 03:16:04;;;;;;;11.03;6.10;;;;;;;4.15;88.02;97690.47;4904684;29;20638;-91
2021/12/03 03:18:32;;;;;;;9.70;6.17;;;;;;;4.15;88.67;97685.31;4888437;29;20654;-91
2021/12/03 03:21:02;;;;;;;9.63;6.60;;;;;;;4.14;88.17;97683.66;4905724;29;20638;-91
2021/12/03 03:23:30;;;;;;;8.90;6.00;;;;;;;4.16;87.71;97692.16;4892135;29;20635;-91
2021/12/03 03:25:59;;;;;;;7.47;5.50;;;;;;;4.16;88.22;97692.97;4907419;29;20667;-92
2021/12/03 03:28:27;;;;;;;10.63;6.23;;;;;;;4.15;87.96;97687.88;4902626;29;20642;-92
2021/12/03 03:30:59;;;;;;;11.70;6.43;;;;;;;4.17;87.38;97688.66;4910960;29;20694;-91
2021/12/03 03:33:28;;;;;;;7.43;6.10;;;;;;;4.15;87.59;97695.63;4907696;29;20634;-91
2021/12/03 03:35:56;;;;;;;7.50;5.43;;;;;;;4.12;87.52;97693.19;4908336;29;20677;-91
2021/12/03 03:38:25;;;;;;;11.67;6.30;;;;;;;4.09;87.86;97695.94;4896577;29;20696;-91
2021/12/03 03:40:53;;;;;;;8.10;5.97;;;;;;;4.07;87.93;97698.59;4904080;29;20674;-92
2021/12/03 03:43:22;;;;;;;10.87;7.13;;;;;;;4.07;87.31;97708.09;4905044;29;20661;-91
2021/12/03 03:45:51;;;;;;;8.37;6.47;;;;;;;4.07;87.70;97708.09;4902831;29;20682;-91
2021/12/03 03:48:23;;;;;;;11.40;6.90;;;;;;;4.06;87.50;97707.25;4907404;29;20723;-92
2021/12/03 03:50:52;;;;;;;9.93;6.50;;;;;;;4.05;88.49;97715.06;4902665;29;21636;-91
2021/12/03 03:53:21;;;;;;;11.83;7.40;;;;;;;4.02;87.56;97716.03;4888572;29;20653;-91
2021/12/03 03:55:49;;;;;;;10.80;6.90;;;;;;;4.05;87.27;97720.22;4886664;29;20669;-92
2021/12/03 03:58:17;;;;;;;9.43;6.83;;;;;;;4.02;87.87;97730.69;4899832;29;20759;-92
2021/12/03 04:00:46;;;;;;;10.50;7.00;;;;;;;4.02;87.80;97728.13;4904814;29;20646;-92
2021/12/03 04:03:15;;;;;;;10.27;6.70;;;;;;;3.98;88.02;97729.16;4893024;29;20641;-91
2021/12/03 04:05:45;;;;;;;12.40;7.70;;;;;;;3.98;88.14;97734.31;4902245;29;21090;-91
2021/12/03 04:08:13;;;;;;;10.63;6.93;;;;;;;4.02;86.92;97731.50;4888544;29;20650;-92
2021/12/03 04:10:42;;;;;;;11.73;7.17;;;;;;;4.01;87.29;97741.91;4909124;29;20725;-91
2021/12/03 04:13:10;;;;;;;13.07;7.57;;;;;;;3.97;87.73;97750.69;4893761;29;21221;-91
2021/12/03 04:15:38;;;;;;;10.93;7.63;;;;;;;3.98;87.52;97749.78;4902914;29;20622;-92
2021/12/03 04:18:06;;;;;;;13.00;8.03;;;;;;;3.96;87.22;97746.47;4891855;29;20658;-91
2021/12/03 04:20:35;;;;;;;12.67;7.83;;;;;;;3.97;87.30;97771.31;4889629;29;20657;-91
2021/12/03 04:23:05;;;;;;;11.00;8.07;;;;;;;3.93;87.71;97768.06;4889320;29;20642;-91
2021/12/03 04:25:33;;;;;;;11.43;7.50;;;;;;;3.90;87.77;97769.97;4888960;29;20631;-91
2021/12/03 04:28:02;;;;;;;11.53;7.90;;;;;;;3.88;88.88;97769.22;4918516;29;21235;-92
2021/12/03 04:30:31;;;;;;;11.70;7.23;;;;;;;3.86;88.30;97774.44;4888503;29;20695;-90
2021/12/03 04:32:59;;;;;;;10.10;6.77;;;;;;;3.89;87.65;97776.03;4887677;29;20674;-90
2021/12/03 04:35:28;;;;;;;13.80;8.27;;;;;;;3.91;88.24;97775.06;4906156;29;20630;-91
2021/12/03 04:37:57;;;;;;;13.70;7.70;;;;;;;3.94;87.48;97782.63;4894291;29;21187;-91
2021/12/03 04:40:28;;;;;;;11.30;8.30;;;;;;;4.00;88.97;97784.06;4915735;29;21320;-91
2021/12/03 04:42:56;;;;;;;12.83;8.17;;;;;;;4.02;87.92;97771.97;4896229;29;20207;-91
2021/12/03 04:45:26;;;;;;;12.23;8.27;;;;;;;4.09;87.53;97784.50;4891358;29;20649;-91
2021/12/03 04:47:55;;;;;;;11.83;7.30;;;;;;;4.09;87.35;97781.91;4895476;29;20658;-90
2021/12/03 04:50:26;;;;;;;12.27;7.73;;;;;;;4.09;87.43;97781.91;4892417;29;20651;-90
2021/12/03 04:52:54;;;;;;;11.10;8.17;;;;;;;4.10;87.06;97785.31;4903419;29;21324;-90
2021/12/03 04:55:23;;;;;;;11.50;7.67;;;;;;;4.14;86.84;97797.19;4901737;29;20650;-91
2021/12/03 04:57:54;;;;;;;11.43;7.80;;;;;;;4.13;87.73;97791.16;4896209;29;20713;-90
2021/12/03 05:00:27;;;;;;;11.90;8.00;;;;;;;4.13;87.19;97798.06;4888948;29;21138;-90
2021/12/03 05:02:56;;;;;;;12.03;8.50;;;;;;;4.08;87.35;97807.78;4911446;29;20670;-90
2021/12/03 05:05:26;;;;;;;10.13;8.07;;;;;;;4.04;86.59;97811.41;4895496;29;20637;-91
2021/12/03 05:08:07;;;;;;;13.30;7.73;;;;;;;4.03;86.33;97814.88;4906148;29;20635;-91
2021/12/03 05:10:37;;;;;;;11.43;7.90;;;;;;;4.00;87.11;97815.03;4899987;29;20631;-91
2021/12/03 05:13:08;;;;;;;11.70;8.00;;;;;;;3.96;85.82;97822.06;4890977;29;20642;-90
2021/12/03 05:15:38;;;;;;;10.50;7.43;;;;;;;3.97;86.19;97823.75;4885911;29;20642;-90
2021/12/03 05:18:07;;;;;;;10.90;7.97;;;;;;;3.99;86.10;97819.34;4885212;29;20635;-90
2021/12/03 05:20:35;;;;;;;14.13;6.53;;;;;;;3.99;86.95;97816.78;4898547;29;20753;-90
2021/12/03 05:23:04;;;;;;;11.70;8.07;;;;;;;3.98;87.55;97811.69;4885870;29;21213;-91
2021/12/03 05:25:32;;;;;;;12.63;7.73;;;;;;;3.99;86.42;97816.78;4900159;29;20650;-90
2021/12/03 05:28:01;;;;;;;10.80;7.40;;;;;;;4.01;86.57;97820.13;4921844;29;21206;-90
2021/12/03 05:30:30;;;;;;;10.43;7.60;;;;;;;4.04;86.49;97826.88;4902864;29;20635;-90
2021/12/03 05:32:59;;;;;;;10.13;7.50;;;;;;;3.99;86.35;97828.84;4893499;29;20673;-90
2021/12/03 05:35:27;;;;;;;11.23;7.83;;;;;;;3.99;86.09;97836.59;4885189;29;20637;-90
2021/12/03 05:37:56;;;;;;;11.40;7.90;;;;;;;4.00;86.15;97840.81;4892257;29;20689;-91
2021/12/03 05:40:24;;;;;;;12.20;7.40;;;;;;;3.97;85.74;97822.91;4904750;29;20656;-89
2021/12/03 05:42:52;;;;;;;10.47;7.93;;;;;;;3.99;85.62;97828.84;4908491;29;20631;-90
2021/12/03 05:45:22;;;;;;;13.03;7.57;;;;;;;4.02;86.64;97823.56;4894792;29;21191;-91
2021/12/03 05:47:53;;;;;;;11.40;7.60;;;;;;;3.98;86.45;97827.16;4888698;29;20646;-90
2021/12/03 05:50:21;;;;;;;11.80;7.70;;;;;;;3.95;85.05;97832.47;4908483;29;20642;-91
2021/12/03 05:52:51;;;;;;;12.80;8.17;;;;;;;3.93;84.88;97839.44;4895727;29;20723;-91
2021/12/03 05:55:20;;;;;;;11.73;7.87;;;;;;;3.93;85.12;97839.44;4924052;29;20638;-90
2021/12/03 05:57:49;;;;;;;10.80;7.80;;;;;;;3.93;86.06;97857.50;4895376;29;20661;-90
2021/12/03 06:00:21;;;;;;;10.60;7.40;;;;;;;3.92;86.14;97860.97;4893898;29;20694;-91
2021/12/03 06:02:49;;;;;;;11.10;7.67;;;;;;;3.90;85.76;97855.06;4894314;29;20677;-90
2021/12/03 06:05:19;;;;;;;11.30;7.53;;;;;;;3.91;85.04;97867.03;4907625;29;20657;-91
2021/12/03 06:07:47;;;;;;;10.67;8.10;;;;;;;3.90;86.23;97862.81;4901899;29;20689;-91
2021/12/03 06:10:15;;;;;;;11.87;8.43;;;;;;;3.88;85.46;97873.19;4915780;29;20729;-90
2021/12/03 06:12:45;;;;;;;14.83;9.47;;;;;;;3.91;84.93;97869.63;4890502;29;20649;-91
2021/12/03 06:15:14;;;;;;;12.90;8.37;;;;;;;3.93;85.60;97883.28;4890689;29;20644;-90
2021/12/03 06:17:42;;;;;;;13.67;8.83;;;;;;;3.97;86.08;97882.22;4905497;29;20646;-91
2021/12/03 06:20:11;;;;;;;12.13;8.00;;;;;;;3.97;84.98;97877.94;4899276;29;20662;-91
2021/12/03 06:22:41;;;;;;;11.30;7.87;;;;;;;3.97;85.21;97879.66;4888089;29;20639;-91
2021/12/03 06:25:11;;;;;;;11.70;8.33;;;;;;;3.93;84.95;97878.13;4907923;29;20646;-90
2021/12/03 06:27:40;;;;;;;11.33;8.07;;;;;;;3.87;85.23;97883.56;4905854;29;20666;-91
2021/12/03 06:30:11;;;;;;;10.70;8.07;;;;;;;3.84;85.91;97884.53;4926224;29;21865;-90
2021/12/03 06:32:39;;;;;;;12.67;8.23;;;;;;;3.81;84.72;97882.09;4891634;29;20647;-88
2021/12/03 06:35:10;;;;;;;12.90;8.53;;;;;;;3.82;85.82;97890.69;4891752;29;20733;-89
2021/12/03 06:37:39;;;;;;;13.77;8.53;;;;;;;3.78;85.20;97902.03;4919301;29;21217;-88
2021/12/03 06:40:13;;;;;;;11.10;7.77;;;;;;;3.75;85.01;97903.00;4894203;29;20647;-84
2021/12/03 06:42:41;;;;;;;11.20;7.73;;;;;;;3.74;85.47;97910.81;4890119;29;20670;-88
2021/12/03 06:45:10;;;;;;;12.83;7.27;;;;;;;3.74;85.23;97908.22;4908391;29;20641;-85
2021/12/03 06:47:39;;;;;;;10.70;7.20;;;;;;;3.76;85.43;97909.84;4908124;29;20677;-85
2021/12/03 06:50:10;;;;;;;11.60;8.00;;;;;;;3.78;84.98;97913.19;4910671;29;21229;-87
2021/12/03 06:52:40;;;;;;;12.07;7.90;;;;;;;3.80;84.61;97905.38;4906501;29;20662;-87
2021/12/03 06:55:14;;;;;;;14.60;7.93;;;;;;;3.82;84.58;97909.56;4888977;29;20641;-88
2021/12/03 06:57:44;;;;;;;12.13;8.00;;;;;;;3.79;84.05;97914.03;4887965;29;20627;-87
2021/12/03 07:00:13;;;;;;;10.33;6.87;;;;;;;3.77;84.00;97916.69;4894214;29;20733;-85
2021/12/03 07:02:41;;;;;;;10.23;7.50;;;;;;;3.72;83.86;97928.09;4890325;29;20690;-86
2021/12/03 07:05:11;;;;;;;9.13;6.80;;;;;;;3.68;84.08;97929.13;4905601;29;20760;-87
2021/12/03 07:07:41;;;;;;;10.57;7.70;;;;;;;3.63;83.99;97927.66;4895001;29;20796;-84
2021/12/03 07:10:11;;;;;;;14.37;9.63;;;;;;;3.55;83.65;97937.44;4906846;29;20634;-84
2021/12/03 07:12:40;;;;;;;14.53;8.83;;;;;;;3.46;83.94;97940.44;4909338;29;20666;-84
2021/12/03 07:15:12;;;;;;;14.67;8.60;;;;;;;3.34;83.13;97940.97;4902515;29;20634;-84
2021/12/03 07:17:40;;;;;;;13.03;8.33;;;;;;;3.25;83.85;97946.50;4903983;29;20638;-84
2021/12/03 07:20:10;;;;;;;13.30;8.70;;;;;;;3.23;83.93;97956.03;4923997;29;21085;-85
2021/12/03 07:22:39;;;;;;;13.80;8.63;;;;;;;3.21;84.28;97954.44;4916802;29;20733;-86
2021/12/03 07:25:08;;;;;;;12.90;8.93;;;;;;;3.20;84.38;97957.91;4902957;29;21323;-86
2021/12/03 07:27:40;;;;;;;15.13;8.13;;;;;;;3.18;84.09;97962.28;4904493;29;21218;-85
2021/12/03 07:30:12;;;;;;;10.83;7.47;;;;;;;3.21;84.40;97957.84;4921730;29;20986;-86
2021/12/03 07:32:43;;;;;;;11.00;6.77;;;;;;;3.24;83.97;97964.59;4902617;29;20710;-85
2021/12/03 07:35:12;;;;;;;10.77;7.33;;;;;;;3.20;84.21;97963.88;4908716;29;21310;-85
2021/12/03 07:37:42;;;;;;;10.23;7.53;;;;;;;3.19;84.28;97964.78;4889533;29;20635;-87
2021/12/03 07:40:12;;;;;;;13.03;9.27;;;;;;;3.22;84.02;97968.97;4908444;29;21432;-86
2021/12/03 07:42:42;;;;;;;9.57;6.47;;;;;;;3.21;82.89;97967.31;4893941;29;20618;-86
2021/12/03 07:45:13;;;;;;;10.03;6.80;;;;;;;3.18;83.63;97964.88;4887311;29;20690;-87
2021/12/03 07:47:42;;;;;;;10.37;7.07;;;;;;;3.22;83.30;97977.56;4903587;29;20630;-85
2021/12/03 07:50:12;;;;;;;8.27;6.23;;;;;;;3.26;82.82;97973.94;4895398;29;20630;-86
2021/12/03 07:52:42;;;;;;;9.67;6.60;;;;;;;3.35;83.08;97973.53;4899663;29;20669;-83
2021/12/03 07:55:11;;;;;;;8.87;6.40;;;;;;;3.41;82.28;97973.28;4892526;29;20651;-83
2021/12/03 07:57:39;;;;;;;8.63;6.17;;;;;;;3.51;83.02;97975.41;4904291;29;20642;-83
2021/12/03 08:00:11;;;;;;;10.27;6.63;;;;;;;3.69;83.07;97973.81;4902022;29;20643;-83
2021/12/03 08:02:40;;;;;;;7.70;5.60;;;;;;;3.77;82.51;97978.56;4910739;29;21053;-83
2021/12/03 08:05:09;;;;;;;8.57;5.73;;;;;;;3.84;81.85;97981.69;4892908;29;20635;-83
2021/12/03 08:07:39;;;;;;;8.93;5.70;;;;;;;4.00;81.54;97991.28;4905036;29;20717;-83
2021/12/03 08:10:11;;;;;;;10.77;6.00;;;;;;;4.30;80.75;97980.41;4906368;29;20686;-83
2021/12/03 08:12:39;;;;;;;7.07;5.10;;;;;;;4.38;79.33;97980.91;4900876;29;21517;-83
2021/12/03 08:15:10;;;;;;;7.70;4.80;;;;;;;4.40;79.32;97981.66;4884899;29;20666;-83
2021/12/03 08:17:38;;;;;;;14.03;5.30;;;;;;;4.49;79.22;97985.56;4889208;29;20653;-82
2021/12/03 08:20:08;;;;;;;9.73;5.10;;;;;;;4.62;79.56;97987.50;4890737;29;20642;-83
2021/12/03 08:22:38;;;;;;;6.47;4.87;;;;;;;4.85;78.45;97987.25;4894449;29;20650;-84
2021/12/03 08:25:07;;;;;;;8.60;5.70;;;;;;;5.13;78.66;97989.28;4902576;29;20738;-84
2021/12/03 08:27:36;;;;;;;6.63;4.30;;;;;;;5.30;77.17;97986.69;4904407;29;21278;-83
2021/12/03 08:30:06;;;;;;;5.90;4.90;;;;;;;5.35;75.74;97991.63;4890300;29;21175;-83
2021/12/03 08:32:36;;;;;;;6.87;4.63;;;;;;;5.21;74.40;97986.31;4915928;29;21188;-83
2021/12/03 08:35:05;;;;;;;7.00;3.97;;;;;;;4.94;75.68;97989.41;4887893;29;20687;-84
2021/12/03 08:37:33;;;;;;;4.30;3.23;;;;;;;4.80;73.33;97986.66;4888385;29;20634;-83
2021/12/03 08:40:02;;;;;;;5.47;3.90;;;;;;;4.58;75.75;97985.13;4903738;29;21244;-84
2021/12/03 08:42:30;;;;;;;3.63;2.90;;;;;;;4.58;75.35;97990.31;4904360;29;20671;-84
2021/12/03 08:44:59;;;;;;;5.17;3.33;;;;;;;4.60;75.51;97989.34;4894801;29;20745;-84
2021/12/03 08:47:29;;;;;;;4.73;3.20;;;;;;;4.68;75.30;97991.56;4904798;29;20761;-84
2021/12/03 08:50:00;;;;;;;6.00;3.50;;;;;;;4.78;75.22;97978.97;4907745;29;20763;-84
2021/12/03 08:52:51;;;;;;;4.20;2.73;;;;;;;5.11;73.54;97987.66;4907295;29;20646;-84
2021/12/03 08:55:23;;;;;;;4.90;2.90;;;;;;;5.18;73.83;97992.47;4905186;29;20644;-84
2021/12/03 08:57:54;;;;;;;3.80;3.00;;;;;;;5.37;75.04;97988.09;4903296;29;20626;-84
2021/12/03 09:00:23;;;;;;;5.50;3.33;;;;;;;5.70;74.84;97994.16;4918302;29;20725;-84
2021/12/03 09:02:54;;;;;;;4.77;3.53;;;;;;;5.92;73.21;97995.56;4904674;29;20650;-84
2021/12/03 09:05:28;;;;;;;3.73;2.50;;;;;;;5.79;72.69;97993.72;4921704;29;20630;-84
2021/12/03 09:07:58;;;;;;;6.40;2.67;;;;;;;5.73;72.56;98006.94;4891304;29;21258;-83
2021/12/03 09:10:39;;;;;;;3.37;2.40;;;;;;;6.01;72.34;98008.03;4911133;29;20630;-84
2021/12/03 09:13:07;;;;;;;3.73;2.17;;;;;;;6.07;71.29;98004.31;4903134;29;20677;-84
2021/12/03 09:15:39;;;;;;;4.40;2.50;;;;;;;6.10;71.18;98003.25;4889812;29;21133;-84
2021/12/03 09:18:23;;;;;;;3.00;1.60;;;;;;;6.13;69.94;97999.63;4908489;29;21600;-84
2021/12/03 09:21:17;;;;;;;3.30;2.40;;;;;;;6.20;69.63;97988.88;4922868;29;20729;-84
2021/12/03 09:23:59;;;;;;;3.10;2.00;;;;;;;6.08;70.15;97994.69;4894102;29;20750;-84
2021/12/03 09:26:28;;;;;;;7.27;2.50;;;;;;;5.85;70.94;98001.13;4920985;29;20633;-85
2021/12/03 09:29:02;;;;;;;2.80;2.30;;;;;;;5.70;71.11;98005.31;4890320;29;20643;-86
2021/12/03 09:31:33;;;;;;;5.50;2.63;;;;;;;5.87;71.22;98012.28;4886620;29;20695;-86
2021/12/03 09:34:01;;;;;;;3.90;2.53;;;;;;;6.07;71.98;98006.91;4889701;29;20670;-85
2021/12/03 09:36:33;;;;;;;5.67;2.57;;;;;;;6.12;70.65;97998.00;4887910;29;20785;-85
2021/12/03 09:39:05;;;;;;;3.90;2.80;;;;;;;6.20;71.27;97996.66;4905384;29;20750;-87
2021/12/03 09:41:33;;;;;;;4.53;2.83;;;;;;;6.23;69.69;98000.84;4882909;29;20742;-86
2021/12/03 09:44:01;;;;;;;3.43;2.60;;;;;;;6.39;71.08;97991.31;4882403;29;20686;-89
2021/12/03 09:46:30;;;;;;;3.93;3.13;;;;;;;6.48;69.65;97994.28;4884284;29;20701;-89
2021/12/03 09:49:19;;;;;;;5.07;3.47;;;;;;;6.62;70.95;97989.19;4887765;29;20646;-89
2021/12/03 09:51:54;;;;;;;5.53;3.20;;;;;;;6.72;70.70;97985.16;4887166;29;20717;-88
2021/12/03 09:54:27;;;;;;;4.53;3.30;;;;;;;6.88;70.08;97983.41;4905483;29;20654;-89
2021/12/03 09:56:59;;;;;;;5.10;3.57;;;;;;;7.03;69.36;97980.78;4881693;29;20643;-89
2021/12/03 10:02:28;;;;;;;4.40;3.33;;;;;;;7.00;70.31;97980.94;4885220;29;20689;-86
2021/12/03 10:13:22;;;;;;;9.23;3.30;;;;;;;6.66;68.43;97962.16;4899071;29;20738;-86
2021/12/03 10:16:00;;;;;;;4.63;3.73;;;;;;;6.25;69.29;97968.75;4895872;29;20742;-86
2021/12/03 10:18:42;;;;;;;6.70;3.47;;;;;;;5.79;68.75;97962.69;4898384;29;20745;-86
2021/12/03 10:21:29;;;;;;;5.83;3.40;;;;;;;5.58;69.79;97966.31;4925005;29;20738;-89
2021/12/03 10:24:33;;;;;;;4.97;3.87;;;;;;;5.27;72.22;97967.94;4892335;29;20646;-88
2021/12/03 10:27:26;;;;;;;7.50;3.67;;;;;;;5.18;73.38;97964.03;4905812;29;20794;-87
2021/12/03 10:30:13;;;;;;;7.13;3.90;;;;;;;5.07;72.27;97962.09;4902815;29;20641;-86
2021/12/03 10:32:57;;;;;;;7.37;3.70;;;;;;;5.05;73.59;97961.31;4912739;29;20726;-86
2021/12/03 10:41:20;;;;;;;12.83;5.50;;;;;;;5.11;72.97;97961.81;4888368;29;20746;-87
2021/12/03 10:44:05;;;;;;;6.10;2.73;;;;;;;4.90;73.17;97964.63;4921688;29;20737;-86
2021/12/03 10:46:46;;;;;;;4.70;2.60;;;;;;;5.10;73.72;97959.31;4884471;29;20733;-86
2021/12/03 10:49:31;;;;;;;3.20;2.13;;;;;;;5.13;73.38;97943.66;4919661;29;20737;-86
2021/12/03 10:52:16;;;;;;;3.90;2.33;;;;;;;5.08;73.87;97951.63;4900606;29;21258;-87
2021/12/03 11:01:09;;;;;;;4.90;2.10;;;;;;;5.75;73.96;97930.09;4898264;29;21234;-87
2021/12/03 11:06:46;;;;;;;4.03;2.10;;;;;;;6.02;70.97;97926.91;4909169;29;20784;-87
2021/12/03 11:35:29;;;;;;;5.03;3.20;;;;;;;5.46;71.50;97891.09;4897053;29;21164;-87
2021/12/03 12:19:16;;;;;;;9.20;5.17;;;;;;;5.55;73.77;97850.09;4890985;29;20650;-86
2021/12/03 13:19:09;;;;;;;6.90;3.40;;;;;;;5.53;72.71;97804.53;4874627;29;21257;-88
2021/12/03 14:01:54;;;;;;;3.53;2.67;;;;;;;4.90;73.47;97771.75;4895617;29;20989;-88
2021/12/03 14:07:36;;;;;;;4.73;2.77;;;;;;;4.99;73.60;97775.56;4870585;29;20750;-86
2021/12/03 14:41:31;;;;;;;3.97;2.57;;;;;;;4.96;73.06;97761.09;4905835;29;20725;-84
2021/12/03 14:44:10;;;;;;;5.93;2.90;;;;;;;4.98;73.60;97753.25;4907989;29;20645;-84
2021/12/03 14:49:48;;;;;;;4.90;3.00;;;;;;;4.92;72.88;97753.56;4890274;29;20649;-85
2021/12/03 14:52:30;;;;;;;3.40;2.70;;;;;;;4.90;72.81;97753.66;4902592;29;20634;-84
2021/12/03 14:55:03;;;;;;;4.63;2.80;;;;;;;4.92;73.44;97748.41;4875313;29;20638;-85
2021/12/03 14:57:40;;;;;;;3.43;2.70;;;;;;;4.89;73.11;97748.56;4905368;29;20772;-85
2021/12/03 15:00:17;;;;;;;4.20;2.80;;;;;;;4.84;72.82;97746.22;4920180;29;21293;-86
2021/12/03 15:08:31;;;;;;;5.97;3.43;;;;;;;4.88;73.32;97752.06;4928109;29;20650;-84
2021/12/03 15:19:49;;;;;;;4.00;3.27;;;;;;;4.99;73.76;97747.16;4906662;29;21330;-86
2021/12/03 15:25:08;;;;;;;5.87;3.37;;;;;;;5.04;74.39;97742.63;4906383;29;20653;-86
2021/12/03 15:30:49;;;;;;;4.27;3.23;;;;;;;5.06;73.83;97746.75;4873081;29;20636;-92
2021/12/03 15:33:26;;;;;;;5.23;2.60;;;;;;;5.09;73.57;97738.84;4891446;29;20634;-86
2021/12/03 15:35:57;;;;;;;18.00;9.47;;;;;;;5.05;74.28;97742.53;4894034;29;20676;-85
2021/12/03 15:38:44;;;;;;;4.77;3.10;;;;;;;5.05;74.30;97739.09;4899042;29;21009;-86
2021/12/03 15:55:38;;;;;;;6.93;4.07;;;;;;;5.05;73.54;97721.00;4891059;29;20745;-88
2021/12/03 15:58:23;;;;;;;5.90;3.63;;;;;;;5.05;73.12;97724.44;4889323;29;21298;-88
2021/12/03 16:03:47;;;;;;;6.10;4.20;;;;;;;5.04;74.12;97721.94;4902296;29;20771;-82
2021/12/03 16:06:24;;;;;;;7.50;3.97;;;;;;;5.04;74.20;97721.94;4900061;29;20670;-82
2021/12/03 16:08:53;;;;;;;4.50;3.30;;;;;;;5.05;73.87;97710.66;4888566;29;20643;-84
2021/12/03 16:11:27;;;;;;;7.27;4.47;;;;;;;5.01;73.13;97712.59;4901777;29;20646;-85
2021/12/03 16:14:10;;;;;;;5.10;3.50;;;;;;;5.00;73.40;97700.56;4916747;29;20709;-84
2021/12/03 16:17:02;;;;;;;5.00;3.40;;;;;;;4.98;73.53;97706.75;4905852;29;20701;-84
2021/12/03 16:44:59;;;;;;;3.20;2.90;;;;;;;4.74;72.96;97679.63;4916280;29;21151;-83
2021/12/03 16:47:53;;;;;;;3.53;2.50;;;;;;;4.72;73.11;97671.97;4906321;29;20636;-83
2021/12/03 16:53:18;;;;;;;7.70;3.07;;;;;;;4.69;73.61;97666.94;4896346;29;21266;-83